sensor_id;sensor_type;location;lat;lon;timestamp;temperature;humidity
75994;DHT22;64680;53.800;9.988;2023-01-28T00:01:11;-0.10;73.00
75994;DHT22;64680;53.800;9.988;2023-01-28T00:03:38;0.00;76.30
75994;DHT22;64680;53.800;9.988;2023-01-28T00:06:09;0.00;78.30
75994;DHT22;64680;53.800;9.988;2023-01-28T00:08:36;0.00;76.50
75994;DHT22;64680;53.800;9.988;2023-01-28T00:11:03;0.00;75.20
75994;DHT22;64680;53.800;9.988;2023-01-28T00:13:29;0.00;73.00
75994;DHT22;64680;53.800;9.988;2023-01-28T00:15:57;0.00;72.10
75994;DHT22;64680;53.800;9.988;2023-01-28T00:18:24;-0.10;73.70
75994;DHT22;64680;53.800;9.988;2023-01-28T00:21:00;-0.10;75.30
75994;DHT22;64680;53.800;9.988;2023-01-28T00:23:28;0.00;75.40
75994;DHT22;64680;53.800;9.988;2023-01-28T00:25:54;0.00;76.00
75994;DHT22;64680;53.800;9.988;2023-01-28T00:28:22;0.00;76.50
75994;DHT22;64680;53.800;9.988;2023-01-28T00:30:47;-0.10;78.10
75994;DHT22;64680;53.800;9.988;2023-01-28T00:33:13;-0.10;77.60
75994;DHT22;64680;53.800;9.988;2023-01-28T00:35:38;-0.10;75.50
75994;DHT22;64680;53.800;9.988;2023-01-28T00:38:04;-0.10;74.20
75994;DHT22;64680;53.800;9.988;2023-01-28T00:40:30;-0.20;74.70
75994;DHT22;64680;53.800;9.988;2023-01-28T00:42:56;-0.20;75.60
75994;DHT22;64680;53.800;9.988;2023-01-28T00:45:21;-0.20;75.10
75994;DHT22;64680;53.800;9.988;2023-01-28T00:47:47;-0.10;76.60
75994;DHT22;64680;53.800;9.988;2023-01-28T00:50:13;-0.10;77.90
75994;DHT22;64680;53.800;9.988;2023-01-28T00:52:39;-0.10;77.40
75994;DHT22;64680;53.800;9.988;2023-01-28T00:55:06;-0.10;78.00
75994;DHT22;64680;53.800;9.988;2023-01-28T00:57:32;-0.10;79.00
75994;DHT22;64680;53.800;9.988;2023-01-28T00:59:58;-0.10;80.80
75994;DHT22;64680;53.800;9.988;2023-01-28T01:02:24;-0.10;81.40
75994;DHT22;64680;53.800;9.988;2023-01-28T01:04:50;0.00;79.40
75994;DHT22;64680;53.800;9.988;2023-01-28T01:07:27;0.00;79.50
75994;DHT22;64680;53.800;9.988;2023-01-28T01:10:07;0.00;76.30
75994;DHT22;64680;53.800;9.988;2023-01-28T01:12:33;0.00;74.10
75994;DHT22;64680;53.800;9.988;2023-01-28T01:14:59;0.00;70.30
75994;DHT22;64680;53.800;9.988;2023-01-28T01:17:24;0.00;70.80
75994;DHT22;64680;53.800;9.988;2023-01-28T01:19:50;0.10;68.20
75994;DHT22;64680;53.800;9.988;2023-01-28T01:22:15;0.00;66.50
75994;DHT22;64680;53.800;9.988;2023-01-28T01:24:41;0.00;67.80
75994;DHT22;64680;53.800;9.988;2023-01-28T01:27:07;0.00;66.60
75994;DHT22;64680;53.800;9.988;2023-01-28T01:29:32;0.00;66.20
75994;DHT22;64680;53.800;9.988;2023-01-28T01:31:58;0.00;65.50
75994;DHT22;64680;53.800;9.988;2023-01-28T01:34:24;0.00;65.40
75994;DHT22;64680;53.800;9.988;2023-01-28T01:36:50;0.00;65.30
75994;DHT22;64680;53.800;9.988;2023-01-28T01:39:15;0.00;65.10
75994;DHT22;64680;53.800;9.988;2023-01-28T01:41:41;0.00;65.50
75994;DHT22;64680;53.800;9.988;2023-01-28T01:47:11;0.00;64.50
75994;DHT22;64680;53.800;9.988;2023-01-28T01:49:37;-0.10;64.40
75994;DHT22;64680;53.800;9.988;2023-01-28T01:52:09;-0.10;64.70
75994;DHT22;64680;53.800;9.988;2023-01-28T01:54:37;-0.10;66.50
75994;DHT22;64680;53.800;9.988;2023-01-28T01:57:04;-0.20;66.40
75994;DHT22;64680;53.800;9.988;2023-01-28T01:59:32;-0.20;66.10
75994;DHT22;64680;53.800;9.988;2023-01-28T02:02:00;-0.30;66.70
75994;DHT22;64680;53.800;9.988;2023-01-28T02:04:34;-0.20;67.90
75994;DHT22;64680;53.800;9.988;2023-01-28T02:07:01;-0.30;68.70
75994;DHT22;64680;53.800;9.988;2023-01-28T02:09:32;-0.30;67.60
75994;DHT22;64680;53.800;9.988;2023-01-28T02:12:10;-0.40;67.00
75994;DHT22;64680;53.800;9.988;2023-01-28T02:14:43;-0.30;67.30
75994;DHT22;64680;53.800;9.988;2023-01-28T02:17:09;-0.30;66.00
75994;DHT22;64680;53.800;9.988;2023-01-28T02:22:28;-0.30;70.80
75994;DHT22;64680;53.800;9.988;2023-01-28T02:25:08;-0.30;75.80
75994;DHT22;64680;53.800;9.988;2023-01-28T02:30:37;-0.20;61.90
75994;DHT22;64680;53.800;9.988;2023-01-28T02:33:13;-0.20;61.80
75994;DHT22;64680;53.800;9.988;2023-01-28T02:35:50;-0.20;62.40
75994;DHT22;64680;53.800;9.988;2023-01-28T02:38:32;-0.20;64.80
75994;DHT22;64680;53.800;9.988;2023-01-28T02:41:05;-0.30;65.80
75994;DHT22;64680;53.800;9.988;2023-01-28T02:43:37;-0.30;66.80
75994;DHT22;64680;53.800;9.988;2023-01-28T02:49:07;-0.40;68.00
75994;DHT22;64680;53.800;9.988;2023-01-28T02:57:08;-0.30;69.20
75994;DHT22;64680;53.800;9.988;2023-01-28T03:02:34;-0.40;70.10
75994;DHT22;64680;53.800;9.988;2023-01-28T03:05:08;-0.40;71.70
75994;DHT22;64680;53.800;9.988;2023-01-28T03:07:38;-0.40;72.40
75994;DHT22;64680;53.800;9.988;2023-01-28T03:10:07;-0.50;73.50
75994;DHT22;64680;53.800;9.988;2023-01-28T03:12:34;-0.50;73.70
75994;DHT22;64680;53.800;9.988;2023-01-28T03:15:26;-0.50;71.80
75994;DHT22;64680;53.800;9.988;2023-01-28T03:21:09;-0.40;66.20
75994;DHT22;64680;53.800;9.988;2023-01-28T03:26:53;-0.50;65.30
75994;DHT22;64680;53.800;9.988;2023-01-28T03:29:40;-0.50;65.80
75994;DHT22;64680;53.800;9.988;2023-01-28T03:32:25;-0.50;66.90
75994;DHT22;64680;53.800;9.988;2023-01-28T03:35:10;-0.50;68.00
75994;DHT22;64680;53.800;9.988;2023-01-28T03:37:55;-0.50;67.30
75994;DHT22;64680;53.800;9.988;2023-01-28T03:40:25;-0.60;67.40
75994;DHT22;64680;53.800;9.988;2023-01-28T03:42:50;-0.70;67.50
75994;DHT22;64680;53.800;9.988;2023-01-28T03:45:18;-0.70;67.30
75994;DHT22;64680;53.800;9.988;2023-01-28T03:47:45;-0.80;68.50
75994;DHT22;64680;53.800;9.988;2023-01-28T03:50:11;-0.70;66.40
75994;DHT22;64680;53.800;9.988;2023-01-28T03:52:37;-0.80;65.40
75994;DHT22;64680;53.800;9.988;2023-01-28T03:55:03;-0.80;65.70
75994;DHT22;64680;53.800;9.988;2023-01-28T03:57:38;-0.90;66.10
75994;DHT22;64680;53.800;9.988;2023-01-28T04:00:04;-0.90;66.20
75994;DHT22;64680;53.800;9.988;2023-01-28T04:02:31;-1.00;67.10
75994;DHT22;64680;53.800;9.988;2023-01-28T04:04:59;-1.00;67.50
75994;DHT22;64680;53.800;9.988;2023-01-28T04:07:25;-1.10;67.90
75994;DHT22;64680;53.800;9.988;2023-01-28T04:09:50;-1.20;68.30
75994;DHT22;64680;53.800;9.988;2023-01-28T04:12:16;-1.20;69.90
75994;DHT22;64680;53.800;9.988;2023-01-28T04:14:42;-1.30;71.00
75994;DHT22;64680;53.800;9.988;2023-01-28T04:17:08;-1.40;72.10
75994;DHT22;64680;53.800;9.988;2023-01-28T04:19:35;-1.40;73.00
75994;DHT22;64680;53.800;9.988;2023-01-28T04:22:06;-1.50;73.80
75994;DHT22;64680;53.800;9.988;2023-01-28T04:24:32;-1.50;75.10
75994;DHT22;64680;53.800;9.988;2023-01-28T04:26:57;-1.60;75.30
75994;DHT22;64680;53.800;9.988;2023-01-28T04:29:23;-1.60;76.90
75994;DHT22;64680;53.800;9.988;2023-01-28T04:31:48;-1.70;76.90
75994;DHT22;64680;53.800;9.988;2023-01-28T04:34:14;-1.80;77.10
75994;DHT22;64680;53.800;9.988;2023-01-28T04:36:39;-1.90;79.80
75994;DHT22;64680;53.800;9.988;2023-01-28T04:39:05;-2.00;81.00
75994;DHT22;64680;53.800;9.988;2023-01-28T04:41:31;-2.10;84.20
75994;DHT22;64680;53.800;9.988;2023-01-28T04:43:56;-2.10;86.90
75994;DHT22;64680;53.800;9.988;2023-01-28T04:46:22;-2.10;87.80
75994;DHT22;64680;53.800;9.988;2023-01-28T04:48:47;-2.20;86.80
75994;DHT22;64680;53.800;9.988;2023-01-28T04:51:13;-2.20;87.60
75994;DHT22;64680;53.800;9.988;2023-01-28T04:53:38;-2.30;87.70
75994;DHT22;64680;53.800;9.988;2023-01-28T04:56:04;-2.30;87.30
75994;DHT22;64680;53.800;9.988;2023-01-28T04:58:30;-2.30;87.70
75994;DHT22;64680;53.800;9.988;2023-01-28T05:00:56;-2.40;88.50
75994;DHT22;64680;53.800;9.988;2023-01-28T05:03:23;-2.40;89.70
75994;DHT22;64680;53.800;9.988;2023-01-28T05:05:49;-2.50;90.30
75994;DHT22;64680;53.800;9.988;2023-01-28T05:08:15;-2.40;90.50
75994;DHT22;64680;53.800;9.988;2023-01-28T05:10:41;-2.50;90.20
75994;DHT22;64680;53.800;9.988;2023-01-28T05:13:06;-2.50;89.90
75994;DHT22;64680;53.800;9.988;2023-01-28T05:15:32;-2.60;90.00
75994;DHT22;64680;53.800;9.988;2023-01-28T05:17:58;-2.60;90.40
75994;DHT22;64680;53.800;9.988;2023-01-28T05:20:24;-2.70;91.30
75994;DHT22;64680;53.800;9.988;2023-01-28T05:22:50;-2.80;92.10
75994;DHT22;64680;53.800;9.988;2023-01-28T05:25:16;-2.80;92.50
75994;DHT22;64680;53.800;9.988;2023-01-28T05:27:41;-2.80;92.60
75994;DHT22;64680;53.800;9.988;2023-01-28T05:30:07;-2.90;92.90
75994;DHT22;64680;53.800;9.988;2023-01-28T05:32:33;-2.90;93.90
75994;DHT22;64680;53.800;9.988;2023-01-28T05:34:59;-2.90;94.40
75994;DHT22;64680;53.800;9.988;2023-01-28T05:37:24;-3.00;94.60
75994;DHT22;64680;53.800;9.988;2023-01-28T05:39:50;-3.00;95.00
75994;DHT22;64680;53.800;9.988;2023-01-28T05:42:15;-3.00;95.30
75994;DHT22;64680;53.800;9.988;2023-01-28T05:44:43;-3.10;95.10
75994;DHT22;64680;53.800;9.988;2023-01-28T05:47:08;-3.10;96.20
75994;DHT22;64680;53.800;9.988;2023-01-28T05:49:34;-3.20;95.50
75994;DHT22;64680;53.800;9.988;2023-01-28T05:51:59;-3.20;95.90
75994;DHT22;64680;53.800;9.988;2023-01-28T05:54:27;-3.30;96.40
75994;DHT22;64680;53.800;9.988;2023-01-28T05:56:53;-3.30;96.80
75994;DHT22;64680;53.800;9.988;2023-01-28T05:59:18;-3.30;97.30
75994;DHT22;64680;53.800;9.988;2023-01-28T06:01:44;-3.20;97.50
75994;DHT22;64680;53.800;9.988;2023-01-28T06:04:09;-3.20;97.90
75994;DHT22;64680;53.800;9.988;2023-01-28T06:06:35;-3.20;97.70
75994;DHT22;64680;53.800;9.988;2023-01-28T06:09:01;-3.10;98.00
75994;DHT22;64680;53.800;9.988;2023-01-28T06:11:26;-3.10;98.10
75994;DHT22;64680;53.800;9.988;2023-01-28T06:13:52;-3.00;98.10
75994;DHT22;64680;53.800;9.988;2023-01-28T06:16:17;-3.00;97.60
75994;DHT22;64680;53.800;9.988;2023-01-28T06:18:43;-3.00;97.00
75994;DHT22;64680;53.800;9.988;2023-01-28T06:21:09;-3.00;96.50
75994;DHT22;64680;53.800;9.988;2023-01-28T06:23:35;-3.00;96.00
75994;DHT22;64680;53.800;9.988;2023-01-28T06:26:00;-3.00;95.80
75994;DHT22;64680;53.800;9.988;2023-01-28T06:28:26;-3.00;96.50
75994;DHT22;64680;53.800;9.988;2023-01-28T06:30:52;-3.00;95.50
75994;DHT22;64680;53.800;9.988;2023-01-28T06:33:18;-3.10;95.80
75994;DHT22;64680;53.800;9.988;2023-01-28T06:35:44;-3.10;95.70
75994;DHT22;64680;53.800;9.988;2023-01-28T06:38:11;-3.10;96.00
75994;DHT22;64680;53.800;9.988;2023-01-28T06:40:36;-3.20;95.90
75994;DHT22;64680;53.800;9.988;2023-01-28T06:43:02;-3.20;96.30
75994;DHT22;64680;53.800;9.988;2023-01-28T06:45:28;-3.20;95.80
75994;DHT22;64680;53.800;9.988;2023-01-28T06:47:54;-3.20;95.50
75994;DHT22;64680;53.800;9.988;2023-01-28T06:50:19;-3.20;95.70
75994;DHT22;64680;53.800;9.988;2023-01-28T06:52:45;-3.30;95.70
75994;DHT22;64680;53.800;9.988;2023-01-28T06:55:10;-3.30;95.90
75994;DHT22;64680;53.800;9.988;2023-01-28T06:57:40;-3.30;95.90
75994;DHT22;64680;53.800;9.988;2023-01-28T07:00:08;-3.40;96.70
75994;DHT22;64680;53.800;9.988;2023-01-28T07:02:35;-3.40;96.90
75994;DHT22;64680;53.800;9.988;2023-01-28T07:05:00;-3.40;96.80
75994;DHT22;64680;53.800;9.988;2023-01-28T07:07:26;-3.40;97.00
75994;DHT22;64680;53.800;9.988;2023-01-28T07:09:52;-3.40;97.20
75994;DHT22;64680;53.800;9.988;2023-01-28T07:12:18;-3.40;97.70
75994;DHT22;64680;53.800;9.988;2023-01-28T07:14:43;-3.30;98.50
75994;DHT22;64680;53.800;9.988;2023-01-28T07:17:09;-3.30;99.30
75994;DHT22;64680;53.800;9.988;2023-01-28T07:19:34;-3.20;99.30
75994;DHT22;64680;53.800;9.988;2023-01-28T07:22:00;-3.20;99.00
75994;DHT22;64680;53.800;9.988;2023-01-28T07:24:28;-3.20;99.30
75994;DHT22;64680;53.800;9.988;2023-01-28T07:26:54;-3.20;99.10
75994;DHT22;64680;53.800;9.988;2023-01-28T07:29:19;-3.20;98.90
75994;DHT22;64680;53.800;9.988;2023-01-28T07:31:45;-3.20;98.70
75994;DHT22;64680;53.800;9.988;2023-01-28T07:34:11;-3.20;98.20
75994;DHT22;64680;53.800;9.988;2023-01-28T07:36:37;-3.20;97.80
75994;DHT22;64680;53.800;9.988;2023-01-28T07:39:03;-3.30;97.90
75994;DHT22;64680;53.800;9.988;2023-01-28T07:41:28;-3.30;97.80
75994;DHT22;64680;53.800;9.988;2023-01-28T07:43:54;-3.30;98.00
75994;DHT22;64680;53.800;9.988;2023-01-28T07:46:20;-3.30;98.10
75994;DHT22;64680;53.800;9.988;2023-01-28T07:48:46;-3.30;98.10
75994;DHT22;64680;53.800;9.988;2023-01-28T07:51:11;-3.30;98.10
75994;DHT22;64680;53.800;9.988;2023-01-28T07:53:37;-3.30;98.50
75994;DHT22;64680;53.800;9.988;2023-01-28T07:56:03;-3.30;98.60
75994;DHT22;64680;53.800;9.988;2023-01-28T07:58:31;-3.20;98.60
75994;DHT22;64680;53.800;9.988;2023-01-28T08:01:00;-3.20;98.40
75994;DHT22;64680;53.800;9.988;2023-01-28T08:03:26;-3.20;98.80
75994;DHT22;64680;53.800;9.988;2023-01-28T08:05:54;-3.20;99.00
75994;DHT22;64680;53.800;9.988;2023-01-28T08:08:24;-3.20;99.10
75994;DHT22;64680;53.800;9.988;2023-01-28T08:10:50;-3.10;99.60
75994;DHT22;64680;53.800;9.988;2023-01-28T08:13:16;-3.00;99.30
75994;DHT22;64680;53.800;9.988;2023-01-28T08:15:43;-3.00;98.70
75994;DHT22;64680;53.800;9.988;2023-01-28T08:18:10;-3.00;98.90
75994;DHT22;64680;53.800;9.988;2023-01-28T08:20:37;-2.90;99.20
75994;DHT22;64680;53.800;9.988;2023-01-28T08:23:17;-2.80;99.10
75994;DHT22;64680;53.800;9.988;2023-01-28T08:25:44;-2.70;99.10
75994;DHT22;64680;53.800;9.988;2023-01-28T08:28:10;-2.60;98.90
75994;DHT22;64680;53.800;9.988;2023-01-28T08:30:37;-2.60;98.30
75994;DHT22;64680;53.800;9.988;2023-01-28T08:33:05;-2.40;98.20
75994;DHT22;64680;53.800;9.988;2023-01-28T08:35:31;-2.40;97.90
75994;DHT22;64680;53.800;9.988;2023-01-28T08:37:59;-2.20;97.80
75994;DHT22;64680;53.800;9.988;2023-01-28T08:40:25;-2.10;97.70
75994;DHT22;64680;53.800;9.988;2023-01-28T08:42:51;-1.80;97.40
75994;DHT22;64680;53.800;9.988;2023-01-28T08:45:18;-1.60;95.00
75994;DHT22;64680;53.800;9.988;2023-01-28T08:47:55;-1.40;93.10
75994;DHT22;64680;53.800;9.988;2023-01-28T08:50:23;-1.10;90.60
75994;DHT22;64680;53.800;9.988;2023-01-28T08:52:56;-0.80;88.30
75994;DHT22;64680;53.800;9.988;2023-01-28T08:55:23;-0.50;85.30
75994;DHT22;64680;53.800;9.988;2023-01-28T08:57:49;-0.30;81.00
75994;DHT22;64680;53.800;9.988;2023-01-28T09:00:15;-0.10;80.40
75994;DHT22;64680;53.800;9.988;2023-01-28T09:02:40;0.60;76.90
75994;DHT22;64680;53.800;9.988;2023-01-28T09:05:06;0.80;71.50
75994;DHT22;64680;53.800;9.988;2023-01-28T09:07:36;0.50;69.50
75994;DHT22;64680;53.800;9.988;2023-01-28T09:10:03;0.40;70.30
75994;DHT22;64680;53.800;9.988;2023-01-28T09:12:30;0.90;70.90
75994;DHT22;64680;53.800;9.988;2023-01-28T09:14:55;1.20;66.60
75994;DHT22;64680;53.800;9.988;2023-01-28T09:17:21;1.20;66.80
75994;DHT22;64680;53.800;9.988;2023-01-28T09:19:47;1.40;65.90
75994;DHT22;64680;53.800;9.988;2023-01-28T09:22:12;2.00;63.20
75994;DHT22;64680;53.800;9.988;2023-01-28T09:24:38;3.00;29.10
75994;DHT22;64680;53.800;9.988;2023-01-28T09:27:03;4.00;19.90
75994;DHT22;64680;53.800;9.988;2023-01-28T09:29:29;4.60;17.60
75994;DHT22;64680;53.800;9.988;2023-01-28T09:31:55;4.60;15.30
75994;DHT22;64680;53.800;9.988;2023-01-28T09:34:20;3.70;16.50
75994;DHT22;64680;53.800;9.988;2023-01-28T09:36:46;3.40;18.90
75994;DHT22;64680;53.800;9.988;2023-01-28T09:39:11;3.10;21.30
75994;DHT22;64680;53.800;9.988;2023-01-28T09:41:53;2.90;19.10
75994;DHT22;64680;53.800;9.988;2023-01-28T09:47:01;2.70;20.00
75994;DHT22;64680;53.800;9.988;2023-01-28T09:49:42;2.30;22.10
75994;DHT22;64680;53.800;9.988;2023-01-28T09:52:11;2.10;26.00
75994;DHT22;64680;53.800;9.988;2023-01-28T09:54:42;2.40;25.50
75994;DHT22;64680;53.800;9.988;2023-01-28T09:57:18;2.50;23.70
75994;DHT22;64680;53.800;9.988;2023-01-28T09:59:44;2.30;23.70
75994;DHT22;64680;53.800;9.988;2023-01-28T10:05:19;1.90;26.80
75994;DHT22;64680;53.800;9.988;2023-01-28T10:18:12;2.00;26.70
75994;DHT22;64680;53.800;9.988;2023-01-28T10:20:51;2.00;28.70
75994;DHT22;64680;53.800;9.988;2023-01-28T10:23:22;1.90;27.70
75994;DHT22;64680;53.800;9.988;2023-01-28T10:25:50;2.10;28.70
75994;DHT22;64680;53.800;9.988;2023-01-28T10:28:26;2.20;26.90
75994;DHT22;64680;53.800;9.988;2023-01-28T10:30:52;2.30;26.30
75994;DHT22;64680;53.800;9.988;2023-01-28T10:33:19;2.40;26.10
75994;DHT22;64680;53.800;9.988;2023-01-28T10:35:46;2.60;25.00
75994;DHT22;64680;53.800;9.988;2023-01-28T10:38:15;2.70;23.60
75994;DHT22;64680;53.800;9.988;2023-01-28T10:40:42;2.80;23.60
75994;DHT22;64680;53.800;9.988;2023-01-28T10:43:08;2.70;23.30
75994;DHT22;64680;53.800;9.988;2023-01-28T10:45:52;2.40;24.00
75994;DHT22;64680;53.800;9.988;2023-01-28T10:48:25;2.50;23.70
75994;DHT22;64680;53.800;9.988;2023-01-28T10:50:58;2.40;25.30
75994;DHT22;64680;53.800;9.988;2023-01-28T10:53:37;2.70;23.80
75994;DHT22;64680;53.800;9.988;2023-01-28T10:56:06;2.80;22.10
75994;DHT22;64680;53.800;9.988;2023-01-28T10:58:35;2.80;22.10
75994;DHT22;64680;53.800;9.988;2023-01-28T11:01:10;2.80;23.00
75994;DHT22;64680;53.800;9.988;2023-01-28T11:03:36;2.90;22.70
75994;DHT22;64680;53.800;9.988;2023-01-28T11:06:02;2.80;21.40
75994;DHT22;64680;53.800;9.988;2023-01-28T11:08:41;2.50;22.90
75994;DHT22;64680;53.800;9.988;2023-01-28T11:11:13;2.60;24.40
75994;DHT22;64680;53.800;9.988;2023-01-28T11:13:49;2.80;22.30
75994;DHT22;64680;53.800;9.988;2023-01-28T11:16:16;2.90;22.50
75994;DHT22;64680;53.800;9.988;2023-01-28T11:18:51;2.80;22.40
75994;DHT22;64680;53.800;9.988;2023-01-28T11:21:28;2.50;23.40
75994;DHT22;64680;53.800;9.988;2023-01-28T11:24:00;2.30;26.10
75994;DHT22;64680;53.800;9.988;2023-01-28T11:26:29;2.30;25.60
75994;DHT22;64680;53.800;9.988;2023-01-28T11:28:56;2.10;26.00
75994;DHT22;64680;53.800;9.988;2023-01-28T11:31:23;2.20;28.40
75994;DHT22;64680;53.800;9.988;2023-01-28T11:33:55;2.20;26.80
75994;DHT22;64680;53.800;9.988;2023-01-28T11:36:27;2.30;27.80
75994;DHT22;64680;53.800;9.988;2023-01-28T11:38:58;2.60;26.90
75994;DHT22;64680;53.800;9.988;2023-01-28T11:41:36;3.00;23.60
75994;DHT22;64680;53.800;9.988;2023-01-28T11:47:00;3.10;22.60
75994;DHT22;64680;53.800;9.988;2023-01-28T12:00:34;3.30;20.90
75994;DHT22;64680;53.800;9.988;2023-01-28T12:05:34;3.30;21.80
75994;DHT22;64680;53.800;9.988;2023-01-28T12:08:11;3.20;21.60
75994;DHT22;64680;53.800;9.988;2023-01-28T12:10:56;3.10;22.60
75994;DHT22;64680;53.800;9.988;2023-01-28T12:16:09;3.00;23.10
75994;DHT22;64680;53.800;9.988;2023-01-28T12:26:56;2.90;25.70
75994;DHT22;64680;53.800;9.988;2023-01-28T12:30:04;2.90;26.10
75994;DHT22;64680;53.800;9.988;2023-01-28T12:41:03;3.00;26.30
75994;DHT22;64680;53.800;9.988;2023-01-28T12:43:52;2.90;26.90
75994;DHT22;64680;53.800;9.988;2023-01-28T12:46:37;2.80;26.90
75994;DHT22;64680;53.800;9.988;2023-01-28T12:49:28;2.70;28.90
75994;DHT22;64680;53.800;9.988;2023-01-28T12:54:38;2.50;29.30
75994;DHT22;64680;53.800;9.988;2023-01-28T12:57:07;2.30;30.00
75994;DHT22;64680;53.800;9.988;2023-01-28T12:59:50;2.20;31.00
75994;DHT22;64680;53.800;9.988;2023-01-28T13:02:26;2.00;33.00
75994;DHT22;64680;53.800;9.988;2023-01-28T13:10:17;1.90;35.70
75994;DHT22;64680;53.800;9.988;2023-01-28T13:12:44;1.90;35.50
75994;DHT22;64680;53.800;9.988;2023-01-28T13:15:12;1.90;34.80
75994;DHT22;64680;53.800;9.988;2023-01-28T13:17:51;2.10;35.00
75994;DHT22;64680;53.800;9.988;2023-01-28T13:20:46;2.10;34.50
75994;DHT22;64680;53.800;9.988;2023-01-28T13:26:23;2.40;33.10
75994;DHT22;64680;53.800;9.988;2023-01-28T13:28:52;2.50;31.70
75994;DHT22;64680;53.800;9.988;2023-01-28T13:31:21;2.60;31.00
75994;DHT22;64680;53.800;9.988;2023-01-28T13:41:42;2.40;32.10
75994;DHT22;64680;53.800;9.988;2023-01-28T13:46:53;2.40;35.00
75994;DHT22;64680;53.800;9.988;2023-01-28T13:49:40;2.40;33.70
75994;DHT22;64680;53.800;9.988;2023-01-28T13:54:38;2.30;33.90
75994;DHT22;64680;53.800;9.988;2023-01-28T13:59:39;2.30;34.90
75994;DHT22;64680;53.800;9.988;2023-01-28T14:10:50;2.20;36.00
75994;DHT22;64680;53.800;9.988;2023-01-28T14:18:48;2.10;37.70
75994;DHT22;64680;53.800;9.988;2023-01-28T14:21:18;2.20;37.50
75994;DHT22;64680;53.800;9.988;2023-01-28T14:23:44;2.30;37.50
75994;DHT22;64680;53.800;9.988;2023-01-28T14:29:03;2.20;37.50
75994;DHT22;64680;53.800;9.988;2023-01-28T14:31:35;2.20;38.60
75994;DHT22;64680;53.800;9.988;2023-01-28T14:36:47;2.10;41.80
75994;DHT22;64680;53.800;9.988;2023-01-28T14:39:19;2.20;41.90
75994;DHT22;64680;53.800;9.988;2023-01-28T14:41:48;2.10;42.90
75994;DHT22;64680;53.800;9.988;2023-01-28T14:47:27;2.40;41.20
75994;DHT22;64680;53.800;9.988;2023-01-28T14:55:26;2.20;41.60
75994;DHT22;64680;53.800;9.988;2023-01-28T14:57:56;2.10;43.60
75994;DHT22;64680;53.800;9.988;2023-01-28T15:00:26;2.10;43.50
75994;DHT22;64680;53.800;9.988;2023-01-28T15:02:51;2.00;45.00
75994;DHT22;64680;53.800;9.988;2023-01-28T15:05:22;2.00;46.00
75994;DHT22;64680;53.800;9.988;2023-01-28T15:07:49;1.90;46.30
75994;DHT22;64680;53.800;9.988;2023-01-28T15:10:20;2.00;48.00
75994;DHT22;64680;53.800;9.988;2023-01-28T15:12:55;1.90;50.50
75994;DHT22;64680;53.800;9.988;2023-01-28T15:15:36;2.00;51.90
75994;DHT22;64680;53.800;9.988;2023-01-28T15:18:04;2.00;52.60
75994;DHT22;64680;53.800;9.988;2023-01-28T15:20:30;1.80;53.70
75994;DHT22;64680;53.800;9.988;2023-01-28T15:22:56;1.70;54.90
75994;DHT22;64680;53.800;9.988;2023-01-28T15:25:26;1.60;57.70
75994;DHT22;64680;53.800;9.988;2023-01-28T15:27:54;1.50;61.00
75994;DHT22;64680;53.800;9.988;2023-01-28T15:30:23;1.40;65.00
75994;DHT22;64680;53.800;9.988;2023-01-28T15:35:25;1.30;69.60
75994;DHT22;64680;53.800;9.988;2023-01-28T15:37:51;1.30;73.10
75994;DHT22;64680;53.800;9.988;2023-01-28T15:40:18;1.30;74.60
75994;DHT22;64680;53.800;9.988;2023-01-28T15:42:46;1.30;76.70
75994;DHT22;64680;53.800;9.988;2023-01-28T15:45:16;1.20;77.30
75994;DHT22;64680;53.800;9.988;2023-01-28T15:47:42;1.20;77.10
75994;DHT22;64680;53.800;9.988;2023-01-28T15:50:23;1.20;76.40
75994;DHT22;64680;53.800;9.988;2023-01-28T15:52:51;1.30;77.80
75994;DHT22;64680;53.800;9.988;2023-01-28T15:57:51;1.20;78.00
75994;DHT22;64680;53.800;9.988;2023-01-28T16:00:21;1.20;78.90
75994;DHT22;64680;53.800;9.988;2023-01-28T16:02:49;1.20;81.00
75994;DHT22;64680;53.800;9.988;2023-01-28T16:05:28;1.10;82.40
75994;DHT22;64680;53.800;9.988;2023-01-28T16:07:56;1.10;83.00
75994;DHT22;64680;53.800;9.988;2023-01-28T16:10:27;1.10;83.20
75994;DHT22;64680;53.800;9.988;2023-01-28T16:13:01;1.10;85.00
75994;DHT22;64680;53.800;9.988;2023-01-28T16:15:29;1.10;85.60
75994;DHT22;64680;53.800;9.988;2023-01-28T16:17:55;1.20;86.70
75994;DHT22;64680;53.800;9.988;2023-01-28T16:20:28;1.10;89.00
75994;DHT22;64680;53.800;9.988;2023-01-28T16:22:59;1.10;91.30
75994;DHT22;64680;53.800;9.988;2023-01-28T16:25:34;0.90;93.40
75994;DHT22;64680;53.800;9.988;2023-01-28T16:28:01;0.90;94.20
75994;DHT22;64680;53.800;9.988;2023-01-28T16:30:28;0.80;94.60
75994;DHT22;64680;53.800;9.988;2023-01-28T16:32:54;0.80;95.00
75994;DHT22;64680;53.800;9.988;2023-01-28T16:35:28;0.70;96.10
75994;DHT22;64680;53.800;9.988;2023-01-28T16:37:53;0.80;96.70
75994;DHT22;64680;53.800;9.988;2023-01-28T16:40:23;0.80;96.50
75994;DHT22;64680;53.800;9.988;2023-01-28T16:42:51;0.80;96.60
75994;DHT22;64680;53.800;9.988;2023-01-28T16:45:20;0.80;96.50
75994;DHT22;64680;53.800;9.988;2023-01-28T16:47:47;0.90;96.40
75994;DHT22;64680;53.800;9.988;2023-01-28T16:50:13;0.90;95.90
75994;DHT22;64680;53.800;9.988;2023-01-28T16:52:41;0.90;95.80
75994;DHT22;64680;53.800;9.988;2023-01-28T16:55:15;0.90;95.90
75994;DHT22;64680;53.800;9.988;2023-01-28T16:57:41;0.90;95.80
75994;DHT22;64680;53.800;9.988;2023-01-28T17:00:14;0.90;95.60
75994;DHT22;64680;53.800;9.988;2023-01-28T17:02:41;0.90;96.00
75994;DHT22;64680;53.800;9.988;2023-01-28T17:05:07;0.90;95.50
75994;DHT22;64680;53.800;9.988;2023-01-28T17:07:35;1.00;95.50
75994;DHT22;64680;53.800;9.988;2023-01-28T17:10:02;1.00;95.70
75994;DHT22;64680;53.800;9.988;2023-01-28T17:12:28;1.00;95.40
75994;DHT22;64680;53.800;9.988;2023-01-28T17:14:53;1.00;95.50
75994;DHT22;64680;53.800;9.988;2023-01-28T17:17:19;1.00;94.90
75994;DHT22;64680;53.800;9.988;2023-01-28T17:19:44;1.10;95.00
75994;DHT22;64680;53.800;9.988;2023-01-28T17:22:10;1.00;94.90
75994;DHT22;64680;53.800;9.988;2023-01-28T17:24:36;1.10;95.10
75994;DHT22;64680;53.800;9.988;2023-01-28T17:27:01;1.10;95.50
75994;DHT22;64680;53.800;9.988;2023-01-28T17:29:27;1.10;95.20
75994;DHT22;64680;53.800;9.988;2023-01-28T17:31:52;1.10;95.40
75994;DHT22;64680;53.800;9.988;2023-01-28T17:34:18;1.10;95.50
75994;DHT22;64680;53.800;9.988;2023-01-28T17:36:44;1.10;95.80
75994;DHT22;64680;53.800;9.988;2023-01-28T17:39:09;1.10;95.90
75994;DHT22;64680;53.800;9.988;2023-01-28T17:41:35;1.10;95.50
75994;DHT22;64680;53.800;9.988;2023-01-28T17:44:01;1.10;95.60
75994;DHT22;64680;53.800;9.988;2023-01-28T17:46:28;1.10;95.50
75994;DHT22;64680;53.800;9.988;2023-01-28T17:48:54;1.20;95.40
75994;DHT22;64680;53.800;9.988;2023-01-28T17:51:20;1.20;94.80
75994;DHT22;64680;53.800;9.988;2023-01-28T17:53:51;1.20;94.60
75994;DHT22;64680;53.800;9.988;2023-01-28T17:56:19;1.20;94.90
75994;DHT22;64680;53.800;9.988;2023-01-28T17:58:53;1.20;95.20
75994;DHT22;64680;53.800;9.988;2023-01-28T18:01:20;1.20;95.20
75994;DHT22;64680;53.800;9.988;2023-01-28T18:03:46;1.20;95.00
75994;DHT22;64680;53.800;9.988;2023-01-28T18:06:11;1.20;95.10
75994;DHT22;64680;53.800;9.988;2023-01-28T18:08:37;1.30;94.90